Kingdom City, MO (65262)

8:00 PM CDT on August 31, 2015 (GMT -0500)
YMCA | | Change Station
CLOSE
Current Station
Personal Weather Station
Location: Fulton, MO
Elevation: 853 ft
Nearby Weather Stations

Elev 853 ft 38.86 °N, 91.94 °W | Updated 1 minute ago

Clear
Clear
82.0 °F
Feels Like 87 °F
N
1.0
Wind Variable Wind from South
Gusts 4.0 mph

Today
High -- | Low -- °F
--% Chance of Precip.
Yesterday
High -- | Low -- °F
Precip. -- in
6:35 AM 7:40 PM
Waning Gibbous, 92% visible
Pressure 29.97 in
Visibility 10.0 miles
Clouds Clear
Heat Index 87 °F
Dew Point 73 °F
Humidity 74%
Rainfall 0.09 in
Snow Depth Not available.
UV 0 out of 12
Pollen 10.60 out of 12
Air Quality Not available.
Flu Activity Not available.
METAR KCOU 010054Z 18006KT 10SM CLR 27/22 A3000 RMK AO2 SLP149 T02670217
Pressure 29.97 in
Visibility 10.0 miles
Clouds Clear
Heat Index 87 °F
Dew Point 73 °F
Humidity 74%
Rainfall 0.09 in
Snow Depth Not available.
UV 0 out of 12
Pollen 10.60 out of 12
Air Quality Not available.
Flu Activity Not available.
METAR KCOU 010054Z 18006KT 10SM CLR 27/22 A3000 RMK AO2 SLP149 T02670217

10-Day Weather Forecast

×

Almanac

Astronomy

Aug. 31, 2015 Rise Set
Actual Time
Civil Twilight
Nautical Twilight
Astronomical Twilight
Moon
Length of Visible Light
Length of Day
Tomorrow will be .
, % of the Moon is Illuminated

Today's Extremes

State Highs State Lows

Community

WunderPhotos

Upload Photos

1,851,413 photos uploaded!

WunderBlogs® & News

Nearby

Air Quality

  Air Quality AQ Index Pollutant
Not available.

Snow Depth

Station Depth Elevation

Earthquake Activity

City Distance Mag. Time & Date
Minimum magnitude displayed is 2.5.

Coastal Water Temperatures

Place Temperature

Stations

Nearby Weather Stations

Station Location Temp. Windchill Dew Point Humidity Wind Precip. Elev Updated Type